IDC9600 FSDA-FSIA
Flight info
| Callsign | IDC9600 |
|---|---|
| Flight time | 1h 12m |
| Altitude | 15000 |
| Route | DCT NATLY |
| Aircraft | C408/L-SDE3FGHIRWY/LB1 |
Departure
| Time | 2026-05-08 13:53 |
|---|---|
| Airport | D'Arros Island Airport (FSDA) |
Arrival
| Time | 2026-05-08 15:05 |
|---|---|
| Airport | Seychelles International Airport (FSIA) |
| Time | Latitude | Longitude | Altitude | Speed | Heading |
|---|---|---|---|---|---|
| 2026-05-08 13:23 | -5.41669 | 53.29641 | 24 ft | 0 kts | 260° |
| 2026-05-08 13:44 | -5.41672 | 53.29624 | 26 ft | 0 kts | 256° |
| 2026-05-08 13:44 | -5.41673 | 53.29619 | 25 ft | 1 kts | 256° |
| 2026-05-08 13:44 | -5.41679 | 53.29574 | 24 ft | 11 kts | 283° |
| 2026-05-08 13:44 | -5.41618 | 53.29532 | 25 ft | 11 kts | 344° |
| 2026-05-08 13:45 | -5.41553 | 53.29511 | 26 ft | 8 kts | 341° |
| 2026-05-08 13:45 | -5.41507 | 53.29496 | 26 ft | 5 kts | 340° |
| 2026-05-08 13:45 | -5.41468 | 53.29481 | 27 ft | 7 kts | 340° |
| 2026-05-08 13:45 | -5.41410 | 53.29460 | 23 ft | 10 kts | 340° |
| 2026-05-08 13:46 | -5.41348 | 53.29441 | 17 ft | 5 kts | 344° |
| 2026-05-08 13:46 | -5.41344 | 53.29426 | 16 ft | 5 kts | 236° |
| 2026-05-08 13:46 | -5.41362 | 53.29426 | 18 ft | 0 kts | 138° |
| 2026-05-08 13:51 | -5.41378 | 53.29443 | 21 ft | 5 kts | 132° |
| 2026-05-08 13:51 | -5.41390 | 53.29452 | 21 ft | 0 kts | 155° |
| 2026-05-08 13:52 | -5.41407 | 53.29460 | 22 ft | 19 kts | 155° |
| 2026-05-08 13:52 | -5.41728 | 53.29583 | 27 ft | 79 kts | 159° |
| 2026-05-08 13:52 | -5.42390 | 53.29841 | 149 ft | 118 kts | 157° |
| 2026-05-08 13:53 | -5.43200 | 53.30176 | 426 ft | 132 kts | 149° |
| 2026-05-08 13:53 | -5.43668 | 53.30954 | 677 ft | 142 kts | 93° |
| 2026-05-08 13:53 | -5.43139 | 53.31784 | 637 ft | 148 kts | 31° |
| 2026-05-08 13:53 | -5.42141 | 53.31851 | 429 ft | 139 kts | 352° |
| 2026-05-08 13:54 | -5.41237 | 53.31640 | 313 ft | 137 kts | 347° |
| 2026-05-08 13:54 | -5.40395 | 53.31342 | 274 ft | 123 kts | 327° |
| 2026-05-08 13:54 | -5.39916 | 53.30704 | 372 ft | 112 kts | 287° |
| 2026-05-08 13:54 | -5.39850 | 53.30195 | 331 ft | 112 kts | 262° |
| 2026-05-08 13:55 | -5.40338 | 53.29322 | 253 ft | 105 kts | 204° |
| 2026-05-08 13:55 | -5.41029 | 53.29297 | 90 ft | 102 kts | 157° |
| 2026-05-08 13:55 | -5.41782 | 53.29603 | 26 ft | 11 kts | 160° |
| 2026-05-08 13:56 | -5.41795 | 53.29608 | 26 ft | 0 kts | 159° |
| 2026-05-08 13:57 | -5.41830 | 53.29636 | 25 ft | 6 kts | 213° |
| 2026-05-08 13:57 | -5.41774 | 53.29576 | 25 ft | 27 kts | 355° |
| 2026-05-08 13:57 | -5.41563 | 53.29519 | 29 ft | 33 kts | 341° |
| 2026-05-08 13:57 | -5.41394 | 53.29455 | 21 ft | 23 kts | 348° |
| 2026-05-08 13:58 | -5.41336 | 53.29432 | 17 ft | 4 kts | 255° |
| 2026-05-08 13:58 | -5.41351 | 53.29428 | 17 ft | 3 kts | 142° |
| 2026-05-08 13:58 | -5.41371 | 53.29442 | 21 ft | 0 kts | 157° |
| 2026-05-08 14:00 | -5.41385 | 53.29448 | 20 ft | 17 kts | 157° |
| 2026-05-08 14:01 | -5.41706 | 53.29575 | 24 ft | 81 kts | 159° |
| 2026-05-08 14:01 | -5.42392 | 53.29834 | 112 ft | 123 kts | 158° |
| 2026-05-08 14:01 | -5.43231 | 53.30159 | 461 ft | 131 kts | 156° |
| 2026-05-08 14:01 | -5.44078 | 53.30495 | 967 ft | 132 kts | 155° |
| 2026-05-08 14:02 | -5.44913 | 53.30858 | 1478 ft | 129 kts | 155° |
| 2026-05-08 14:02 | -5.45736 | 53.31222 | 1942 ft | 130 kts | 156° |
| 2026-05-08 14:02 | -5.46543 | 53.31622 | 2409 ft | 132 kts | 141° |
| 2026-05-08 14:02 | -5.46843 | 53.32465 | 2892 ft | 138 kts | 83° |
| 2026-05-08 14:03 | -5.46334 | 53.33303 | 3346 ft | 144 kts | 57° |
| 2026-05-08 14:03 | -5.45907 | 53.34180 | 3784 ft | 138 kts | 81° |
| 2026-05-08 14:03 | -5.45699 | 53.35127 | 4239 ft | 139 kts | 82° |
| 2026-05-08 14:03 | -5.45516 | 53.36104 | 4479 ft | 157 kts | 83° |
| 2026-05-08 14:04 | -5.45311 | 53.37265 | 4474 ft | 178 kts | 83° |
| 2026-05-08 14:04 | -5.45090 | 53.38514 | 4476 ft | 184 kts | 83° |
| 2026-05-08 14:04 | -5.44862 | 53.39787 | 4469 ft | 186 kts | 83° |
| 2026-05-08 14:04 | -5.44633 | 53.41071 | 4468 ft | 187 kts | 83° |
| 2026-05-08 14:05 | -5.44406 | 53.42358 | 4495 ft | 188 kts | 82° |
| 2026-05-08 14:05 | -5.44178 | 53.43645 | 4499 ft | 188 kts | 83° |
| 2026-05-08 14:05 | -5.43951 | 53.44925 | 4524 ft | 188 kts | 83° |
| 2026-05-08 14:05 | -5.43723 | 53.46215 | 4552 ft | 187 kts | 83° |
| 2026-05-08 14:06 | -5.43494 | 53.47508 | 4548 ft | 188 kts | 83° |
| 2026-05-08 14:06 | -5.43265 | 53.48803 | 4554 ft | 188 kts | 82° |
| 2026-05-08 14:06 | -5.43035 | 53.50094 | 4555 ft | 186 kts | 83° |
| 2026-05-08 14:06 | -5.42816 | 53.51325 | 4794 ft | 177 kts | 83° |
| 2026-05-08 14:07 | -5.42603 | 53.52522 | 5047 ft | 171 kts | 83° |
| 2026-05-08 14:07 | -5.42398 | 53.53683 | 5299 ft | 169 kts | 83° |
| 2026-05-08 14:07 | -5.42194 | 53.54836 | 5558 ft | 167 kts | 82° |
| 2026-05-08 14:07 | -5.41965 | 53.55868 | 5783 ft | 140 kts | 80° |
| 2026-05-08 14:08 | -5.41799 | 53.56786 | 5999 ft | 127 kts | 82° |
| 2026-05-08 14:08 | -5.41651 | 53.57640 | 6230 ft | 121 kts | 82° |
| 2026-05-08 14:08 | -5.41512 | 53.58443 | 6450 ft | 115 kts | 83° |
| 2026-05-08 14:08 | -5.41376 | 53.59220 | 6671 ft | 111 kts | 84° |
| 2026-05-08 14:09 | -5.41246 | 53.59965 | 6893 ft | 106 kts | 83° |
| 2026-05-08 14:09 | -5.41120 | 53.60678 | 7116 ft | 102 kts | 82° |
| 2026-05-08 14:09 | -5.41000 | 53.61362 | 7344 ft | 97 kts | 82° |
| 2026-05-08 14:09 | -5.40880 | 53.62008 | 7526 ft | 98 kts | 80° |
| 2026-05-08 14:10 | -5.40569 | 53.62758 | 7412 ft | 129 kts | 63° |
| 2026-05-08 14:10 | -5.40107 | 53.63431 | 7847 ft | 96 kts | 68° |
| 2026-05-08 14:10 | -5.40189 | 53.64083 | 7850 ft | 105 kts | 119° |
| 2026-05-08 14:10 | -5.40307 | 53.64844 | 7927 ft | 119 kts | 84° |
| 2026-05-08 14:11 | -5.40203 | 53.65684 | 7989 ft | 127 kts | 84° |
| 2026-05-08 14:11 | -5.40064 | 53.66575 | 8097 ft | 129 kts | 82° |
| 2026-05-08 14:11 | -5.39913 | 53.67466 | 8226 ft | 129 kts | 82° |
| 2026-05-08 14:11 | -5.39755 | 53.68363 | 8337 ft | 130 kts | 83° |
| 2026-05-08 14:12 | -5.39597 | 53.69258 | 8464 ft | 131 kts | 82° |
| 2026-05-08 14:12 | -5.39437 | 53.70158 | 8564 ft | 132 kts | 83° |
| 2026-05-08 14:12 | -5.39274 | 53.71077 | 8678 ft | 134 kts | 81° |
| 2026-05-08 14:12 | -5.39111 | 53.71996 | 8814 ft | 133 kts | 83° |
| 2026-05-08 14:13 | -5.38950 | 53.72902 | 8923 ft | 134 kts | 83° |
| 2026-05-08 14:13 | -5.38786 | 53.73826 | 9039 ft | 134 kts | 82° |
| 2026-05-08 14:13 | -5.38621 | 53.74756 | 9144 ft | 135 kts | 82° |
| 2026-05-08 14:13 | -5.38456 | 53.75684 | 9250 ft | 136 kts | 81° |
| 2026-05-08 14:14 | -5.38290 | 53.76620 | 9375 ft | 135 kts | 82° |
| 2026-05-08 14:14 | -5.38127 | 53.77539 | 9485 ft | 136 kts | 82° |
| 2026-05-08 14:14 | -5.37961 | 53.78472 | 9615 ft | 136 kts | 82° |
| 2026-05-08 14:14 | -5.37794 | 53.79415 | 9722 ft | 137 kts | 81° |
| 2026-05-08 14:15 | -5.37625 | 53.80365 | 9827 ft | 138 kts | 80° |
| 2026-05-08 14:15 | -5.37458 | 53.81304 | 9930 ft | 138 kts | 81° |
| 2026-05-08 14:15 | -5.37289 | 53.82252 | 10035 ft | 138 kts | 81° |
| 2026-05-08 14:15 | -5.37133 | 53.83211 | 10218 ft | 140 kts | 85° |
| 2026-05-08 14:16 | -5.36984 | 53.84160 | 10617 ft | 137 kts | 82° |
| 2026-05-08 14:16 | -5.36815 | 53.85109 | 10962 ft | 139 kts | 81° |
| 2026-05-08 14:16 | -5.36644 | 53.86068 | 11328 ft | 139 kts | 82° |
| 2026-05-08 14:16 | -5.36473 | 53.87028 | 11686 ft | 140 kts | 82° |
| 2026-05-08 14:17 | -5.36304 | 53.87979 | 12045 ft | 140 kts | 82° |
| 2026-05-08 14:17 | -5.36132 | 53.88948 | 12403 ft | 141 kts | 82° |
| 2026-05-08 14:17 | -5.35959 | 53.89919 | 12766 ft | 142 kts | 81° |
| 2026-05-08 14:17 | -5.35784 | 53.90904 | 13005 ft | 152 kts | 82° |
| 2026-05-08 14:18 | -5.35588 | 53.92027 | 13018 ft | 173 kts | 82° |
| 2026-05-08 14:18 | -5.35368 | 53.93272 | 13019 ft | 188 kts | 82° |
| 2026-05-08 14:18 | -5.35131 | 53.94597 | 13016 ft | 197 kts | 81° |
| 2026-05-08 14:18 | -5.34886 | 53.95975 | 13011 ft | 203 kts | 81° |
| 2026-05-08 14:19 | -5.34635 | 53.97382 | 13012 ft | 205 kts | 81° |
| 2026-05-08 14:19 | -5.34386 | 53.98785 | 13007 ft | 207 kts | 81° |
| 2026-05-08 14:19 | -5.34132 | 54.00209 | 13005 ft | 208 kts | 81° |
| 2026-05-08 14:19 | -5.33876 | 54.01642 | 13010 ft | 208 kts | 81° |
| 2026-05-08 14:20 | -5.33622 | 54.03074 | 13012 ft | 208 kts | 82° |
| 2026-05-08 14:20 | -5.33366 | 54.04505 | 13009 ft | 207 kts | 81° |
| 2026-05-08 14:20 | -5.33115 | 54.05913 | 13014 ft | 207 kts | 81° |
| 2026-05-08 14:20 | -5.32860 | 54.07343 | 13010 ft | 208 kts | 81° |
| 2026-05-08 14:21 | -5.32605 | 54.08778 | 13011 ft | 208 kts | 82° |
| 2026-05-08 14:21 | -5.32351 | 54.10204 | 13010 ft | 207 kts | 81° |
| 2026-05-08 14:21 | -5.32114 | 54.11529 | 13010 ft | 208 kts | 81° |
| 2026-05-08 14:21 | -5.31852 | 54.13000 | 13011 ft | 208 kts | 81° |
| 2026-05-08 14:22 | -5.31597 | 54.14432 | 13009 ft | 208 kts | 81° |
| 2026-05-08 14:22 | -5.31343 | 54.15860 | 13007 ft | 207 kts | 81° |
| 2026-05-08 14:22 | -5.31088 | 54.17287 | 13004 ft | 208 kts | 81° |
| 2026-05-08 14:22 | -5.30832 | 54.18719 | 13006 ft | 208 kts | 81° |
| 2026-05-08 14:23 | -5.30581 | 54.20127 | 13009 ft | 207 kts | 81° |
| 2026-05-08 14:23 | -5.30326 | 54.21559 | 13005 ft | 207 kts | 81° |
| 2026-05-08 14:23 | -5.30071 | 54.22982 | 13004 ft | 208 kts | 81° |
| 2026-05-08 14:23 | -5.29815 | 54.24413 | 13008 ft | 208 kts | 81° |
| 2026-05-08 14:24 | -5.29564 | 54.25824 | 13002 ft | 207 kts | 82° |
| 2026-05-08 14:24 | -5.29310 | 54.27250 | 13001 ft | 207 kts | 81° |
| 2026-05-08 14:24 | -5.29055 | 54.28671 | 13002 ft | 207 kts | 81° |
| 2026-05-08 14:24 | -5.28800 | 54.30099 | 13001 ft | 207 kts | 81° |
| 2026-05-08 14:25 | -5.28546 | 54.31520 | 13002 ft | 207 kts | 82° |
| 2026-05-08 14:25 | -5.28296 | 54.32923 | 13001 ft | 207 kts | 81° |
| 2026-05-08 14:25 | -5.28042 | 54.34347 | 12999 ft | 207 kts | 81° |
| 2026-05-08 14:25 | -5.27786 | 54.35777 | 13004 ft | 207 kts | 81° |
| 2026-05-08 14:26 | -5.27533 | 54.37198 | 13001 ft | 207 kts | 82° |
| 2026-05-08 14:26 | -5.27282 | 54.38601 | 13004 ft | 207 kts | 81° |
| 2026-05-08 14:26 | -5.27027 | 54.40024 | 13000 ft | 207 kts | 81° |
| 2026-05-08 14:26 | -5.26772 | 54.41449 | 13001 ft | 207 kts | 81° |
| 2026-05-08 14:27 | -5.26517 | 54.42873 | 13008 ft | 206 kts | 82° |
| 2026-05-08 14:27 | -5.26264 | 54.44294 | 13010 ft | 207 kts | 81° |
| 2026-05-08 14:27 | -5.26009 | 54.45717 | 13003 ft | 207 kts | 81° |
| 2026-05-08 14:27 | -5.25758 | 54.47123 | 13007 ft | 207 kts | 81° |
| 2026-05-08 14:28 | -5.25503 | 54.48545 | 13004 ft | 207 kts | 82° |
| 2026-05-08 14:28 | -5.25248 | 54.49971 | 13002 ft | 207 kts | 81° |
| 2026-05-08 14:28 | -5.24993 | 54.51398 | 13003 ft | 208 kts | 81° |
| 2026-05-08 14:28 | -5.24738 | 54.52825 | 13001 ft | 208 kts | 81° |
| 2026-05-08 14:29 | -5.24481 | 54.54252 | 13002 ft | 207 kts | 82° |
| 2026-05-08 14:29 | -5.24229 | 54.55663 | 13004 ft | 207 kts | 81° |
| 2026-05-08 14:29 | -5.23973 | 54.57091 | 13004 ft | 208 kts | 81° |
| 2026-05-08 14:29 | -5.23718 | 54.58521 | 13001 ft | 208 kts | 81° |
| 2026-05-08 14:30 | -5.23462 | 54.59950 | 13002 ft | 207 kts | 82° |
| 2026-05-08 14:30 | -5.23215 | 54.61365 | 12997 ft | 196 kts | 84° |
| 2026-05-08 14:30 | -5.23037 | 54.62616 | 12978 ft | 174 kts | 83° |
| 2026-05-08 14:30 | -5.22791 | 54.63823 | 12988 ft | 183 kts | 79° |
| 2026-05-08 14:31 | -5.22531 | 54.65111 | 13004 ft | 193 kts | 82° |
| 2026-05-08 14:31 | -5.22292 | 54.66464 | 13009 ft | 199 kts | 82° |
| 2026-05-08 14:31 | -5.22048 | 54.67838 | 13004 ft | 204 kts | 81° |
| 2026-05-08 14:32 | -5.21542 | 54.70661 | 13006 ft | 207 kts | 82° |
| 2026-05-08 14:32 | -5.21287 | 54.72084 | 13007 ft | 207 kts | 81° |
| 2026-05-08 14:32 | -5.21032 | 54.73511 | 13005 ft | 208 kts | 81° |
| 2026-05-08 14:32 | -5.20773 | 54.74948 | 13005 ft | 208 kts | 81° |
| 2026-05-08 14:33 | -5.20520 | 54.76361 | 12999 ft | 208 kts | 82° |
| 2026-05-08 14:33 | -5.20262 | 54.77797 | 12999 ft | 208 kts | 81° |
| 2026-05-08 14:33 | -5.20006 | 54.79226 | 12998 ft | 208 kts | 81° |
| 2026-05-08 14:33 | -5.19748 | 54.80656 | 13000 ft | 208 kts | 81° |
| 2026-05-08 14:34 | -5.19496 | 54.82066 | 13005 ft | 208 kts | 81° |
| 2026-05-08 14:34 | -5.19239 | 54.83498 | 13003 ft | 208 kts | 81° |
| 2026-05-08 14:34 | -5.18982 | 54.84932 | 13002 ft | 208 kts | 81° |
| 2026-05-08 14:34 | -5.18724 | 54.86362 | 13004 ft | 208 kts | 81° |
| 2026-05-08 14:35 | -5.18471 | 54.87777 | 13005 ft | 208 kts | 81° |
| 2026-05-08 14:35 | -5.18214 | 54.89207 | 13006 ft | 208 kts | 81° |
| 2026-05-08 14:35 | -5.17957 | 54.90636 | 13003 ft | 209 kts | 81° |
| 2026-05-08 14:35 | -5.17699 | 54.92069 | 13005 ft | 208 kts | 82° |
| 2026-05-08 14:36 | -5.17443 | 54.93501 | 13003 ft | 208 kts | 81° |
| 2026-05-08 14:36 | -5.17188 | 54.94917 | 13003 ft | 208 kts | 82° |
| 2026-05-08 14:36 | -5.16930 | 54.96353 | 13004 ft | 208 kts | 81° |
| 2026-05-08 14:36 | -5.16673 | 54.97784 | 13006 ft | 208 kts | 82° |
| 2026-05-08 14:37 | -5.16416 | 54.99212 | 13002 ft | 208 kts | 81° |
| 2026-05-08 14:37 | -5.16163 | 55.00620 | 13001 ft | 208 kts | 81° |
| 2026-05-08 14:37 | -5.15905 | 55.02053 | 13007 ft | 208 kts | 81° |
| 2026-05-08 14:37 | -5.15648 | 55.03480 | 13002 ft | 207 kts | 82° |
| 2026-05-08 14:38 | -5.15393 | 55.04903 | 13010 ft | 207 kts | 81° |
| 2026-05-08 14:38 | -5.15136 | 55.06330 | 13006 ft | 207 kts | 81° |
| 2026-05-08 14:38 | -5.14882 | 55.07743 | 13009 ft | 208 kts | 81° |
| 2026-05-08 14:38 | -5.14625 | 55.09168 | 13010 ft | 207 kts | 81° |
| 2026-05-08 14:39 | -5.14368 | 55.10598 | 13007 ft | 207 kts | 81° |
| 2026-05-08 14:39 | -5.14115 | 55.12002 | 13004 ft | 207 kts | 81° |
| 2026-05-08 14:39 | -5.13858 | 55.13431 | 13005 ft | 207 kts | 81° |
| 2026-05-08 14:39 | -5.13601 | 55.14859 | 13004 ft | 207 kts | 82° |
| 2026-05-08 14:40 | -5.13348 | 55.16265 | 13003 ft | 207 kts | 81° |
| 2026-05-08 14:40 | -5.13091 | 55.17689 | 13000 ft | 207 kts | 81° |
| 2026-05-08 14:40 | -5.12835 | 55.19116 | 12999 ft | 207 kts | 81° |
| 2026-05-08 14:40 | -5.12578 | 55.20539 | 13001 ft | 207 kts | 82° |
| 2026-05-08 14:41 | -5.12409 | 55.21480 | 13003 ft | 207 kts | 81° |
| 2026-05-08 14:41 | -5.12066 | 55.23379 | 13000 ft | 208 kts | 81° |
| 2026-05-08 14:41 | -5.11813 | 55.24789 | 13000 ft | 207 kts | 81° |
| 2026-05-08 14:41 | -5.11639 | 55.25753 | 13002 ft | 207 kts | 82° |
| 2026-05-08 14:42 | -5.11587 | 55.26045 | 13002 ft | 207 kts | 81° |
| 2026-05-08 14:42 | -5.11331 | 55.27459 | 12999 ft | 207 kts | 82° |
| 2026-05-08 14:42 | -5.11075 | 55.28882 | 12995 ft | 208 kts | 81° |
| 2026-05-08 14:42 | -5.10817 | 55.30310 | 12996 ft | 208 kts | 81° |
| 2026-05-08 14:43 | -5.10563 | 55.31721 | 13001 ft | 207 kts | 82° |
| 2026-05-08 14:43 | -5.10307 | 55.33141 | 13001 ft | 207 kts | 82° |
| 2026-05-08 14:43 | -5.10050 | 55.34565 | 13002 ft | 207 kts | 81° |
| 2026-05-08 14:43 | -5.09793 | 55.35991 | 13003 ft | 207 kts | 81° |
| 2026-05-08 14:44 | -5.09537 | 55.37412 | 13002 ft | 206 kts | 82° |
| 2026-05-08 14:44 | -5.09281 | 55.38833 | 13002 ft | 206 kts | 82° |
| 2026-05-08 14:44 | -5.09024 | 55.40254 | 13000 ft | 207 kts | 81° |
| 2026-05-08 14:44 | -5.08770 | 55.41660 | 13004 ft | 207 kts | 81° |
| 2026-05-08 14:45 | -5.08514 | 55.43082 | 13002 ft | 207 kts | 82° |
| 2026-05-08 14:45 | -5.08221 | 55.44494 | 13001 ft | 207 kts | 72° |
| 2026-05-08 14:45 | -5.07332 | 55.45625 | 12989 ft | 213 kts | 36° |
| 2026-05-08 14:45 | -5.05906 | 55.46030 | 12989 ft | 218 kts | 1° |
| 2026-05-08 14:46 | -5.04439 | 55.45654 | 13001 ft | 220 kts | 341° |
| 2026-05-08 14:46 | -5.03004 | 55.45105 | 13007 ft | 220 kts | 341° |
| 2026-05-08 14:46 | -5.01548 | 55.44616 | 12998 ft | 220 kts | 344° |
| 2026-05-08 14:46 | -5.00097 | 55.44178 | 13000 ft | 220 kts | 344° |
| 2026-05-08 14:47 | -4.98627 | 55.43732 | 12999 ft | 220 kts | 344° |
| 2026-05-08 14:47 | -4.97159 | 55.43277 | 12998 ft | 221 kts | 345° |
| 2026-05-08 14:47 | -4.95692 | 55.42822 | 12999 ft | 220 kts | 345° |
| 2026-05-08 14:47 | -4.94240 | 55.42371 | 13000 ft | 220 kts | 343° |
| 2026-05-08 14:48 | -4.92778 | 55.41919 | 12997 ft | 220 kts | 344° |
| 2026-05-08 14:48 | -4.91318 | 55.41468 | 12996 ft | 220 kts | 345° |
| 2026-05-08 14:48 | -4.89851 | 55.41013 | 12989 ft | 220 kts | 344° |
| 2026-05-08 14:48 | -4.88401 | 55.40564 | 12949 ft | 219 kts | 344° |
| 2026-05-08 14:49 | -4.86938 | 55.40111 | 12805 ft | 220 kts | 343° |
| 2026-05-08 14:49 | -4.85493 | 55.39664 | 12636 ft | 216 kts | 343° |
| 2026-05-08 14:49 | -4.84040 | 55.39214 | 12227 ft | 218 kts | 344° |
| 2026-05-08 14:49 | -4.82581 | 55.38763 | 11878 ft | 219 kts | 344° |
| 2026-05-08 14:50 | -4.81129 | 55.38314 | 11577 ft | 216 kts | 344° |
| 2026-05-08 14:50 | -4.79703 | 55.37872 | 11263 ft | 215 kts | 343° |
| 2026-05-08 14:50 | -4.78278 | 55.37431 | 10972 ft | 214 kts | 344° |
| 2026-05-08 14:50 | -4.76846 | 55.36988 | 10668 ft | 214 kts | 344° |
| 2026-05-08 14:51 | -4.75438 | 55.36553 | 10371 ft | 215 kts | 344° |
| 2026-05-08 14:51 | -4.74012 | 55.36111 | 10100 ft | 212 kts | 343° |
| 2026-05-08 14:51 | -4.72599 | 55.35674 | 9828 ft | 211 kts | 343° |
| 2026-05-08 14:51 | -4.71200 | 55.35241 | 9556 ft | 210 kts | 343° |
| 2026-05-08 14:52 | -4.69797 | 55.34808 | 9251 ft | 211 kts | 343° |
| 2026-05-08 14:52 | -4.67005 | 55.33943 | 8700 ft | 209 kts | 343° |
| 2026-05-08 14:52 | -4.65614 | 55.33513 | 8445 ft | 208 kts | 343° |
| 2026-05-08 14:53 | -4.64245 | 55.33090 | 8210 ft | 206 kts | 343° |
| 2026-05-08 14:53 | -4.62869 | 55.32664 | 7946 ft | 207 kts | 343° |
| 2026-05-08 14:53 | -4.61496 | 55.32239 | 7709 ft | 206 kts | 344° |
| 2026-05-08 14:53 | -4.60126 | 55.31816 | 7457 ft | 205 kts | 343° |
| 2026-05-08 14:54 | -4.58797 | 55.31404 | 7416 ft | 196 kts | 343° |
| 2026-05-08 14:54 | -4.57519 | 55.31008 | 7238 ft | 188 kts | 343° |
| 2026-05-08 14:54 | -4.56233 | 55.30616 | 6738 ft | 190 kts | 346° |
| 2026-05-08 14:54 | -4.54936 | 55.30546 | 5867 ft | 193 kts | 12° |
| 2026-05-08 14:55 | -4.53713 | 55.30964 | 5345 ft | 184 kts | 32° |
| 2026-05-08 14:55 | -4.52745 | 55.31766 | 4832 ft | 179 kts | 53° |
| 2026-05-08 14:55 | -4.52034 | 55.32773 | 4300 ft | 176 kts | 58° |
| 2026-05-08 14:55 | -4.51331 | 55.33775 | 3981 ft | 174 kts | 58° |
| 2026-05-08 14:56 | -4.50645 | 55.34745 | 3889 ft | 167 kts | 58° |
| 2026-05-08 14:56 | -4.49978 | 55.35692 | 3780 ft | 166 kts | 58° |
| 2026-05-08 14:56 | -4.49334 | 55.36604 | 3671 ft | 158 kts | 58° |
| 2026-05-08 14:56 | -4.48701 | 55.37501 | 3556 ft | 157 kts | 59° |
| 2026-05-08 14:57 | -4.48095 | 55.38407 | 3433 ft | 153 kts | 68° |
| 2026-05-08 14:57 | -4.48014 | 55.39418 | 3327 ft | 144 kts | 105° |
| 2026-05-08 14:57 | -4.48508 | 55.40244 | 3226 ft | 141 kts | 139° |
| 2026-05-08 14:57 | -4.49390 | 55.40633 | 3129 ft | 141 kts | 172° |
| 2026-05-08 14:58 | -4.50365 | 55.40521 | 3038 ft | 140 kts | 187° |
| 2026-05-08 14:58 | -4.51310 | 55.40431 | 2937 ft | 137 kts | 168° |
| 2026-05-08 14:58 | -4.52148 | 55.40840 | 2851 ft | 132 kts | 144° |
| 2026-05-08 14:58 | -4.52883 | 55.41357 | 2773 ft | 128 kts | 145° |
| 2026-05-08 14:59 | -4.53610 | 55.41867 | 2674 ft | 127 kts | 145° |
| 2026-05-08 14:59 | -4.55028 | 55.42860 | 2482 ft | 110 kts | 145° |
| 2026-05-08 14:59 | -4.55631 | 55.43283 | 2354 ft | 106 kts | 145° |
| 2026-05-08 15:00 | -4.56229 | 55.43702 | 2203 ft | 103 kts | 145° |
| 2026-05-08 15:00 | -4.56807 | 55.44105 | 2070 ft | 99 kts | 145° |
| 2026-05-08 15:00 | -4.57364 | 55.44497 | 1951 ft | 96 kts | 146° |
| 2026-05-08 15:00 | -4.57912 | 55.44882 | 1825 ft | 98 kts | 145° |
| 2026-05-08 15:01 | -4.58478 | 55.45277 | 1705 ft | 103 kts | 145° |
| 2026-05-08 15:01 | -4.59065 | 55.45688 | 1568 ft | 102 kts | 145° |
| 2026-05-08 15:01 | -4.59643 | 55.46093 | 1426 ft | 101 kts | 145° |
| 2026-05-08 15:01 | -4.60218 | 55.46494 | 1299 ft | 101 kts | 144° |
| 2026-05-08 15:02 | -4.60792 | 55.46897 | 1166 ft | 100 kts | 144° |
| 2026-05-08 15:02 | -4.61365 | 55.47299 | 1036 ft | 100 kts | 144° |
| 2026-05-08 15:02 | -4.61933 | 55.47697 | 912 ft | 100 kts | 144° |
| 2026-05-08 15:02 | -4.62520 | 55.48099 | 821 ft | 108 kts | 148° |
| 2026-05-08 15:03 | -4.63208 | 55.48441 | 851 ft | 110 kts | 156° |
| 2026-05-08 15:03 | -4.63931 | 55.48747 | 717 ft | 115 kts | 156° |
| 2026-05-08 15:03 | -4.64671 | 55.49081 | 616 ft | 119 kts | 155° |
| 2026-05-08 15:03 | -4.65388 | 55.49496 | 493 ft | 121 kts | 144° |
| 2026-05-08 15:04 | -4.65989 | 55.50081 | 308 ft | 121 kts | 129° |
| 2026-05-08 15:04 | -4.66462 | 55.50769 | 166 ft | 118 kts | 127° |
| 2026-05-08 15:04 | -4.66934 | 55.51450 | 44 ft | 119 kts | 127° |
| 2026-05-08 15:04 | -4.67345 | 55.52034 | 21 ft | 81 kts | 127° |
| 2026-05-08 15:05 | -4.67722 | 55.52589 | 17 ft | 101 kts | 123° |
| 2026-05-08 15:05 | -4.67972 | 55.52956 | 18 ft | 18 kts | 123° |
| 2026-05-08 15:05 | -4.67947 | 55.52974 | 18 ft | 12 kts | 323° |
| 2026-05-08 15:05 | -4.67911 | 55.52879 | 18 ft | 18 kts | 293° |
| 2026-05-08 15:06 | -4.67824 | 55.52743 | 18 ft | 34 kts | 304° |
| 2026-05-08 15:06 | -4.67629 | 55.52461 | 20 ft | 57 kts | 304° |
| 2026-05-08 15:06 | -4.67407 | 55.52120 | 20 ft | 58 kts | 304° |
| 2026-05-08 15:06 | -4.67171 | 55.51793 | 18 ft | 56 kts | 302° |
| 2026-05-08 15:07 | -4.66983 | 55.51507 | 18 ft | 38 kts | 309° |
| 2026-05-08 15:07 | -4.66906 | 55.51370 | 18 ft | 17 kts | 253° |
| 2026-05-08 15:07 | -4.66946 | 55.51332 | 17 ft | 15 kts | 214° |
| 2026-05-08 15:07 | -4.67024 | 55.51260 | 17 ft | 4 kts | 291° |
| 2026-05-08 15:08 | -4.66993 | 55.51205 | 18 ft | 9 kts | 305° |
| 2026-05-08 15:08 | -4.66961 | 55.51160 | 18 ft | 15 kts | 304° |
| 2026-05-08 15:08 | -4.66916 | 55.51089 | 17 ft | 10 kts | 271° |
| 2026-05-08 15:08 | -4.66931 | 55.51070 | 17 ft | 0 kts | 171° |
| 2026-05-08 15:09 | -4.66936 | 55.51074 | 17 ft | 0 kts | 128° |